createdAt,value
2017-10-20T00:00:48.619Z,0
2017-10-20T00:01:48.586Z,0
2017-10-20T00:02:48.903Z,0
2017-10-20T00:03:49.238Z,0
2017-10-20T00:04:48.556Z,0
2017-10-20T00:05:48.541Z,0
2017-10-20T00:06:48.852Z,0
2017-10-20T00:07:49.179Z,0
2017-10-20T00:08:48.504Z,0
2017-10-20T00:09:48.495Z,0
2017-10-20T00:10:49.157Z,0
2017-10-20T00:11:48.804Z,0
2017-10-20T00:12:48.784Z,0
2017-10-20T00:13:48.778Z,0
2017-10-20T00:14:48.430Z,0
2017-10-20T00:15:48.412Z,0
2017-10-20T00:16:48.459Z,0
2017-10-20T00:17:48.403Z,0
2017-10-20T00:18:48.049Z,0
2017-10-20T00:19:48.367Z,0
2017-10-20T00:20:48.371Z,0
2017-10-20T00:21:48.719Z,0
2017-10-20T00:22:48.671Z,0
2017-10-20T00:23:48.325Z,0
2017-10-20T00:24:48.639Z,0
2017-10-20T00:25:48.295Z,0
2017-10-20T00:26:48.674Z,0
2017-10-20T00:27:48.273Z,0
2017-10-20T00:28:48.930Z,0
2017-10-20T00:29:48.253Z,0
2017-10-20T00:30:47.931Z,0
2017-10-20T00:31:48.897Z,0
2017-10-20T00:32:48.213Z,0
2017-10-20T00:33:48.206Z,0
2017-10-20T00:34:48.197Z,0
2017-10-20T00:35:47.850Z,0
2017-10-20T00:36:48.168Z,0
2017-10-20T00:37:48.156Z,0
2017-10-20T00:38:48.487Z,0
2017-10-20T00:39:48.464Z,0
2017-10-20T00:40:48.465Z,0
2017-10-20T00:41:48.501Z,0
2017-10-20T00:42:48.105Z,0
2017-10-20T00:43:48.420Z,0
2017-10-20T00:44:48.074Z,0
2017-10-20T00:45:48.410Z,0
2017-10-20T00:46:48.384Z,0
2017-10-20T00:47:48.374Z,0
2017-10-20T00:48:48.026Z,0
2017-10-20T00:49:48.363Z,0
2017-10-20T00:50:48.337Z,0
2017-10-20T00:51:48.708Z,0
2017-10-20T00:52:47.979Z,0
2017-10-20T00:53:47.966Z,0
2017-10-20T00:54:47.952Z,0
2017-10-20T00:55:48.609Z,0
2017-10-20T00:56:48.593Z,0
2017-10-20T00:57:48.259Z,0
2017-10-20T00:58:48.234Z,0
2017-10-20T00:59:47.898Z,0
2017-10-20T01:00:47.885Z,0
2017-10-20T01:01:48.213Z,0
2017-10-20T01:02:47.523Z,0
2017-10-20T01:03:47.841Z,0
2017-10-20T01:04:48.164Z,0
2017-10-20T01:05:48.491Z,0
2017-10-20T01:06:48.144Z,0
2017-10-20T01:07:48.137Z,0
2017-10-20T01:08:47.790Z,0
2017-10-20T01:09:48.117Z,0
2017-10-20T01:10:47.762Z,0
2017-10-20T01:11:47.749Z,0
2017-10-20T01:12:47.745Z,0
2017-10-20T01:13:48.397Z,0
2017-10-20T01:14:48.047Z,0
2017-10-20T01:15:48.375Z,0
2017-10-20T01:16:48.223Z,0
2017-10-20T01:17:48.344Z,0
2017-10-20T01:18:48.004Z,0
2017-10-20T01:19:47.658Z,0
2017-10-20T01:20:47.972Z,0
2017-10-20T01:21:47.636Z,0
2017-10-20T01:22:47.621Z,0
2017-10-20T01:23:47.935Z,0
2017-10-20T01:24:47.935Z,0
2017-10-20T01:25:47.922Z,0
2017-10-20T01:26:47.236Z,0
2017-10-20T01:27:47.900Z,0
2017-10-20T01:28:47.543Z,0
2017-10-20T01:29:47.201Z,0
2017-10-20T01:30:47.527Z,0
2017-10-20T01:31:47.852Z,0
2017-10-20T01:32:47.831Z,0
2017-10-20T01:33:48.159Z,0
2017-10-20T01:34:47.481Z,0
2017-10-20T01:35:48.129Z,0
2017-10-20T01:36:47.987Z,0
2017-10-20T01:37:47.434Z,0
2017-10-20T01:38:47.089Z,0
2017-10-20T01:39:47.739Z,0
2017-10-20T01:40:47.410Z,0
2017-10-20T01:41:47.378Z,0
2017-10-20T01:42:48.044Z,0
2017-10-20T01:43:47.363Z,0
2017-10-20T01:44:47.684Z,0
2017-10-20T01:45:48.007Z,0
2017-10-20T01:46:47.996Z,0
2017-10-20T01:47:48.187Z,0
2017-10-20T01:48:47.639Z,0
2017-10-20T01:49:47.636Z,0
2017-10-20T01:50:47.277Z,0
2017-10-20T01:51:47.936Z,0
2017-10-20T01:52:47.269Z,0
2017-10-20T01:53:47.239Z,0
2017-10-20T01:54:47.906Z,0
2017-10-20T01:55:47.222Z,0
2017-10-20T01:56:47.205Z,0
2017-10-20T01:57:47.523Z,0
2017-10-20T01:58:47.187Z,0
2017-10-20T01:59:47.837Z,0
2017-10-20T02:00:47.820Z,0
2017-10-20T02:01:47.476Z,0
2017-10-20T02:02:47.465Z,0
2017-10-20T02:03:47.448Z,0
2017-10-20T02:04:47.446Z,0
2017-10-20T02:05:46.761Z,0
2017-10-20T02:06:47.073Z,0
2017-10-20T02:07:47.396Z,0
2017-10-20T02:08:47.053Z,0
2017-10-20T02:09:47.038Z,0
2017-10-20T02:10:47.027Z,0
2017-10-20T02:11:47.368Z,0
2017-10-20T02:12:47.729Z,0
2017-10-20T02:13:47.333Z,0
2017-10-20T02:14:47.647Z,0
2017-10-20T02:15:47.294Z,0
2017-10-20T02:16:47.627Z,0
2017-10-20T02:17:47.276Z,0
2017-10-20T02:18:47.269Z,0
2017-10-20T02:19:47.248Z,0
2017-10-20T02:20:46.900Z,0
2017-10-20T02:21:47.558Z,0
2017-10-20T02:22:47.222Z,0
2017-10-20T02:23:47.201Z,0
2017-10-20T02:24:47.199Z,0
2017-10-20T02:25:47.176Z,0
2017-10-20T02:26:46.836Z,0
2017-10-20T02:27:46.824Z,0
2017-10-20T02:28:47.475Z,0
2017-10-20T02:29:47.130Z,0
2017-10-20T02:30:47.114Z,0
2017-10-20T02:31:47.099Z,0
2017-10-20T02:32:47.097Z,0
2017-10-20T02:33:47.084Z,0
2017-10-20T02:34:47.076Z,0
2017-10-20T02:35:47.057Z,0
2017-10-20T02:36:46.372Z,0
2017-10-20T02:37:47.361Z,0
2017-10-20T02:38:46.682Z,0
2017-10-20T02:39:46.331Z,0
2017-10-20T02:40:47.330Z,0
2017-10-20T02:41:47.314Z,0
2017-10-20T02:42:46.978Z,0
2017-10-20T02:43:46.957Z,0
2017-10-20T02:44:46.277Z,0
2017-10-20T02:45:47.270Z,0
2017-10-20T02:46:47.248Z,0
2017-10-20T02:47:47.245Z,0
2017-10-20T02:48:46.889Z,0
2017-10-20T02:49:46.879Z,0
2017-10-20T02:50:46.531Z,0
2017-10-20T02:51:46.844Z,0
2017-10-20T02:52:46.835Z,0
2017-10-20T02:53:46.837Z,0
2017-10-20T02:54:46.479Z,0
2017-10-20T02:55:46.807Z,0
2017-10-20T02:56:46.788Z,0
2017-10-20T02:57:46.447Z,0
2017-10-20T02:58:46.767Z,0
2017-10-20T02:59:46.765Z,0
2017-10-20T03:00:46.415Z,0
2017-10-20T03:01:47.072Z,0
2017-10-20T03:02:46.048Z,0
2017-10-20T03:03:46.364Z,0
2017-10-20T03:04:46.690Z,0
2017-10-20T03:05:46.669Z,0
2017-10-20T03:06:45.997Z,0
2017-10-20T03:07:46.312Z,0
2017-10-20T03:08:46.640Z,0
2017-10-20T03:09:46.296Z,0
2017-10-20T03:10:46.625Z,0
2017-10-20T03:11:45.935Z,0
2017-10-20T03:12:46.271Z,0
2017-10-20T03:13:46.253Z,0
2017-10-20T03:14:46.908Z,0
2017-10-20T03:15:46.558Z,0
2017-10-20T03:16:46.416Z,0
2017-10-20T03:17:46.553Z,0
2017-10-20T03:18:46.195Z,0
2017-10-20T03:19:46.167Z,0
2017-10-20T03:20:46.165Z,0
2017-10-20T03:21:46.827Z,0
2017-10-20T03:22:46.131Z,0
2017-10-20T03:23:46.109Z,0
2017-10-20T03:24:46.435Z,0
2017-10-20T03:25:46.089Z,0
2017-10-20T03:26:46.082Z,0
2017-10-20T03:27:46.062Z,0
2017-10-20T03:28:46.385Z,0
2017-10-20T03:29:46.037Z,0
2017-10-20T03:30:46.029Z,0
2017-10-20T03:31:46.013Z,0
2017-10-20T03:32:46.005Z,0
2017-10-20T03:33:45.987Z,0
2017-10-20T03:34:46.317Z,0
2017-10-20T03:35:45.960Z,0
2017-10-20T03:36:46.617Z,0
2017-10-20T03:37:46.273Z,0
2017-10-20T03:38:46.266Z,0
2017-10-20T03:39:45.915Z,0
2017-10-20T03:40:45.936Z,0
2017-10-20T03:41:46.222Z,0
2017-10-20T03:42:46.546Z,0
2017-10-20T03:43:46.208Z,0
2017-10-20T03:44:46.183Z,0
2017-10-20T03:45:46.177Z,0
2017-10-20T03:46:46.491Z,0
2017-10-20T03:47:46.485Z,0
2017-10-20T03:48:46.139Z,0
2017-10-20T03:49:45.780Z,0
2017-10-20T03:50:46.104Z,0
2017-10-20T03:51:46.093Z,0
2017-10-20T03:52:46.075Z,0
2017-10-20T03:53:46.078Z,0
2017-10-20T03:54:45.726Z,0
2017-10-20T03:55:45.706Z,0
2017-10-20T03:56:46.032Z,0
2017-10-20T03:57:45.681Z,0
2017-10-20T03:58:46.345Z,0
2017-10-20T03:59:45.658Z,0
2017-10-20T04:00:45.644Z,0
2017-10-20T04:01:45.965Z,0
2017-10-20T04:02:45.953Z,0
2017-10-20T04:03:46.290Z,0
2017-10-20T04:04:45.930Z,0
2017-10-20T04:05:45.915Z,0
2017-10-20T04:06:46.241Z,0
2017-10-20T04:07:45.223Z,0
2017-10-20T04:08:45.546Z,0
2017-10-20T04:09:45.869Z,0
2017-10-20T04:10:45.525Z,0
2017-10-20T04:11:45.837Z,0
2017-10-20T04:12:45.826Z,0
2017-10-20T04:13:45.487Z,0
2017-10-20T04:14:46.144Z,0
2017-10-20T04:15:45.456Z,0
2017-10-20T04:16:45.106Z,0
2017-10-20T04:17:45.768Z,0
2017-10-20T04:18:45.415Z,0
2017-10-20T04:19:46.076Z,0
2017-10-20T04:20:45.725Z,0
2017-10-20T04:21:45.047Z,0
2017-10-20T04:22:45.696Z,0
2017-10-20T04:23:46.020Z,0
2017-10-20T04:24:45.336Z,0
2017-10-20T04:25:45.675Z,0
2017-10-20T04:26:45.309Z,0
2017-10-20T04:27:45.642Z,0
2017-10-20T04:28:45.294Z,0
2017-10-20T04:29:44.948Z,0
2017-10-20T04:30:45.259Z,0
2017-10-20T04:31:45.932Z,0
2017-10-20T04:32:45.575Z,0
2017-10-20T04:33:45.552Z,0
2017-10-20T04:34:45.879Z,0
2017-10-20T04:35:45.540Z,0
2017-10-20T04:36:45.524Z,0
2017-10-20T04:37:45.503Z,0
2017-10-20T04:38:45.161Z,0
2017-10-20T04:39:45.477Z,0
2017-10-20T04:40:45.802Z,0
2017-10-20T04:41:45.124Z,0
2017-10-20T04:42:45.442Z,0
2017-10-20T04:43:45.435Z,0
2017-10-20T04:44:45.423Z,0
2017-10-20T04:45:45.076Z,0
2017-10-20T04:46:45.059Z,0
2017-10-20T04:47:45.056Z,0
2017-10-20T04:48:45.040Z,0
2017-10-20T04:49:45.368Z,0
2017-10-20T04:50:45.344Z,0
2017-10-20T04:51:45.000Z,0
2017-10-20T04:52:45.656Z,0
2017-10-20T04:53:44.982Z,0
2017-10-20T04:54:45.630Z,0
2017-10-20T04:55:45.279Z,0
2017-10-20T04:56:45.608Z,0
2017-10-20T04:57:45.268Z,0
2017-10-20T04:58:45.257Z,0
2017-10-20T04:59:44.897Z,0
2017-10-20T05:00:44.901Z,0
2017-10-20T05:01:44.877Z,0
2017-10-20T05:02:44.863Z,0
2017-10-20T05:03:45.553Z,0
2017-10-20T05:04:44.505Z,0
2017-10-20T05:05:45.499Z,0
2017-10-20T05:06:44.821Z,0
2017-10-20T05:07:45.137Z,0
2017-10-20T05:08:44.794Z,0
2017-10-20T05:09:45.133Z,0
2017-10-20T05:10:44.766Z,0
2017-10-20T05:11:44.757Z,0
2017-10-20T05:12:45.090Z,0
2017-10-20T05:13:44.732Z,0
2017-10-20T05:14:44.718Z,0
2017-10-20T05:15:45.049Z,0
2017-10-20T05:16:44.700Z,0
2017-10-20T05:17:44.559Z,0
2017-10-20T05:18:45.347Z,0
2017-10-20T05:19:44.993Z,0
2017-10-20T05:20:44.653Z,0
2017-10-20T05:21:44.640Z,0
2017-10-20T05:22:44.624Z,0
2017-10-20T05:23:44.620Z,0
2017-10-20T05:24:44.935Z,0
2017-10-20T05:25:44.924Z,0
2017-10-20T05:26:44.576Z,0
2017-10-20T05:27:44.903Z,0
2017-10-20T05:28:44.557Z,0
2017-10-20T05:29:44.545Z,0
2017-10-20T05:30:45.224Z,0
2017-10-20T05:31:44.844Z,0
2017-10-20T05:32:44.846Z,0
2017-10-20T05:33:44.493Z,0
2017-10-20T05:34:45.154Z,0
2017-10-20T05:35:44.799Z,0
2017-10-20T05:36:44.786Z,0
2017-10-20T05:37:44.444Z,0
2017-10-20T05:38:45.091Z,0
2017-10-20T05:39:45.094Z,0
2017-10-20T05:40:44.741Z,0
2017-10-20T05:41:44.385Z,0
2017-10-20T05:42:45.050Z,0
2017-10-20T05:43:44.365Z,0
2017-10-20T05:44:44.684Z,0
2017-10-20T05:45:44.669Z,0
2017-10-20T05:46:44.994Z,4
2017-10-20T05:47:43.982Z,4
2017-10-20T05:48:44.973Z,0
2017-10-20T05:49:44.969Z,4
2017-10-20T05:50:43.941Z,4
2017-10-20T05:51:44.598Z,4
2017-10-20T05:52:44.926Z,4
2017-10-20T05:53:44.906Z,8
2017-10-20T05:54:44.558Z,8
2017-10-20T05:55:43.876Z,8
2017-10-20T05:56:44.196Z,8
2017-10-20T05:57:44.178Z,8
2017-10-20T05:58:44.164Z,12
2017-10-20T05:59:44.494Z,12
2017-10-20T06:00:44.803Z,16
2017-10-20T06:01:44.810Z,16
2017-10-20T06:02:44.457Z,16
2017-10-20T06:03:44.436Z,24
2017-10-20T06:04:44.423Z,28
2017-10-20T06:05:44.748Z,32
2017-10-20T06:06:44.059Z,40
2017-10-20T06:07:44.049Z,40
2017-10-20T06:08:44.034Z,44
2017-10-20T06:09:43.694Z,44
2017-10-20T06:10:44.352Z,44
2017-10-20T06:11:43.654Z,48
2017-10-20T06:12:44.639Z,52
2017-10-20T06:13:44.290Z,60
2017-10-20T06:14:44.621Z,64
2017-10-20T06:15:44.281Z,60
2017-10-20T06:16:44.629Z,68
2017-10-20T06:17:44.250Z,56
2017-10-20T06:18:43.561Z,60
2017-10-20T06:19:44.208Z,64
2017-10-20T06:20:44.200Z,72
2017-10-20T06:21:43.848Z,76
2017-10-20T06:22:43.829Z,84
2017-10-20T06:23:43.480Z,76
2017-10-20T06:24:43.472Z,88
2017-10-20T06:25:44.468Z,92
2017-10-20T06:26:43.780Z,88
2017-10-20T06:27:43.758Z,84
2017-10-20T06:28:44.421Z,84
2017-10-20T06:29:44.067Z,88
2017-10-20T06:30:43.718Z,104
2017-10-20T06:31:44.033Z,104
2017-10-20T06:32:44.023Z,108
2017-10-20T06:33:43.670Z,100
2017-10-20T06:34:43.997Z,76
2017-10-20T06:35:43.649Z,80
2017-10-20T06:36:43.976Z,84
2017-10-20T06:37:43.957Z,84
2017-10-20T06:38:43.607Z,88
2017-10-20T06:39:43.926Z,96
2017-10-20T06:40:43.909Z,88
2017-10-20T06:41:44.231Z,84
2017-10-20T06:42:43.550Z,76
2017-10-20T06:43:43.533Z,84
2017-10-20T06:44:43.858Z,88
2017-10-20T06:45:43.503Z,84
2017-10-20T06:46:43.829Z,72
2017-10-20T06:47:43.475Z,64
2017-10-20T06:48:43.461Z,68
2017-10-20T06:49:43.779Z,68
2017-10-20T06:50:44.105Z,72
2017-10-20T06:51:43.753Z,72
2017-10-20T06:52:43.738Z,80
2017-10-20T06:53:43.393Z,80
2017-10-20T06:54:44.047Z,92
2017-10-20T06:55:43.703Z,116
2017-10-20T06:56:43.677Z,136
2017-10-20T06:57:43.668Z,160
2017-10-20T06:58:43.653Z,180
2017-10-20T06:59:42.975Z,196
2017-10-20T07:00:43.287Z,200
2017-10-20T07:01:43.612Z,200
2017-10-20T07:02:42.931Z,196
2017-10-20T07:03:43.932Z,200
2017-10-20T07:04:42.903Z,196
2017-10-20T07:05:43.232Z,200
2017-10-20T07:06:43.204Z,300
2017-10-20T07:07:43.545Z,448
2017-10-20T07:08:42.848Z,548
2017-10-20T07:09:43.509Z,532
2017-10-20T07:10:43.491Z,540
2017-10-20T07:11:43.485Z,596
2017-10-20T07:12:42.793Z,692
2017-10-20T07:13:43.443Z,732
2017-10-20T07:14:43.764Z,772
2017-10-20T07:15:43.415Z,852
2017-10-20T07:16:43.416Z,840
2017-10-20T07:17:42.922Z,836
2017-10-20T07:18:43.036Z,888
2017-10-20T07:19:43.704Z,1008
2017-10-20T07:20:43.012Z,1092
2017-10-20T07:21:43.336Z,1112
2017-10-20T07:22:42.991Z,1160
2017-10-20T07:23:42.972Z,1184
2017-10-20T07:24:42.630Z,1164
2017-10-20T07:25:43.288Z,1112
2017-10-20T07:26:42.932Z,1088
2017-10-20T07:27:42.916Z,1052
2017-10-20T07:28:42.899Z,1148
2017-10-20T07:29:43.555Z,1244
2017-10-20T07:30:43.206Z,1292
2017-10-20T07:31:43.522Z,1304
2017-10-20T07:32:43.179Z,1368
2017-10-20T07:33:43.172Z,1540
2017-10-20T07:34:43.150Z,1660
2017-10-20T07:35:43.138Z,1608
2017-10-20T07:36:42.793Z,1520
2017-10-20T07:37:43.129Z,1408
2017-10-20T07:38:43.094Z,1364
2017-10-20T07:39:43.086Z,1380
2017-10-20T07:40:43.411Z,1444
2017-10-20T07:41:43.393Z,1572
2017-10-20T07:42:42.721Z,1756
2017-10-20T07:43:42.728Z,1896
2017-10-20T07:44:42.678Z,2220
2017-10-20T07:45:42.997Z,2608
2017-10-20T07:46:42.979Z,3080
2017-10-20T07:47:43.310Z,3212
2017-10-20T07:48:42.966Z,3132
2017-10-20T07:49:42.951Z,2972
2017-10-20T07:50:42.932Z,2512
2017-10-20T07:51:42.913Z,2336
2017-10-20T07:52:42.570Z,2500
2017-10-20T07:53:42.231Z,2840
2017-10-20T07:54:42.887Z,3284
2017-10-20T07:55:42.867Z,3608
2017-10-20T07:56:42.178Z,3612
2017-10-20T07:57:42.499Z,3896
2017-10-20T07:58:42.815Z,3952
2017-10-20T07:59:42.471Z,3976
2017-10-20T08:00:42.458Z,3896
2017-10-20T08:01:43.129Z,4000
2017-10-20T08:02:42.771Z,3996
2017-10-20T08:03:42.418Z,4108
2017-10-20T08:04:42.407Z,4160
2017-10-20T08:05:42.725Z,4248
2017-10-20T08:06:43.043Z,4220
2017-10-20T08:07:42.703Z,4520
2017-10-20T08:08:42.695Z,4444
2017-10-20T08:09:43.017Z,4148
2017-10-20T08:10:42.658Z,4056
2017-10-20T08:11:42.645Z,3676
2017-10-20T08:12:41.963Z,3308
2017-10-20T08:13:42.970Z,3056
2017-10-20T08:14:42.606Z,2312
2017-10-20T08:15:42.275Z,2168
2017-10-20T08:16:42.256Z,2112
2017-10-20T08:17:41.899Z,1736
2017-10-20T08:18:42.567Z,1560
2017-10-20T08:19:42.877Z,1588
2017-10-20T08:20:42.880Z,1736
2017-10-20T08:21:42.205Z,1932
2017-10-20T08:22:42.172Z,1700
2017-10-20T08:23:42.814Z,1208
2017-10-20T08:24:42.142Z,1200
2017-10-20T08:25:42.458Z,1548
2017-10-20T08:26:42.470Z,1796
2017-10-20T08:27:42.776Z,1564
2017-10-20T08:28:42.461Z,1892
2017-10-20T08:29:42.753Z,2592
2017-10-20T08:30:41.730Z,4136
2017-10-20T08:31:42.041Z,5472
2017-10-20T08:32:42.040Z,5036
2017-10-20T08:33:42.034Z,4560
2017-10-20T08:34:42.720Z,4556
2017-10-20T08:35:42.360Z,4020
2017-10-20T08:36:42.316Z,3428
2017-10-20T08:37:41.970Z,2936
2017-10-20T08:38:42.295Z,2200
2017-10-20T08:39:42.271Z,1712
2017-10-20T08:40:41.939Z,1328
2017-10-20T08:41:42.252Z,1296
2017-10-20T08:42:42.231Z,1376
2017-10-20T08:43:42.565Z,1808
2017-10-20T08:44:42.203Z,1676
2017-10-20T08:45:42.203Z,1564
2017-10-20T08:46:41.843Z,1508
2017-10-20T08:47:41.838Z,1388
2017-10-20T08:48:41.821Z,1228
2017-10-20T08:49:42.134Z,1164
2017-10-20T08:50:42.130Z,1204
2017-10-20T08:51:42.152Z,1396
2017-10-20T08:52:41.772Z,1884
2017-10-20T08:53:41.753Z,2304
2017-10-20T08:54:41.745Z,2460
2017-10-20T08:55:41.725Z,2452
2017-10-20T08:56:42.383Z,2348
2017-10-20T08:57:41.696Z,2332
2017-10-20T08:58:42.026Z,2668
2017-10-20T08:59:41.675Z,2896
2017-10-20T09:00:42.337Z,2904
2017-10-20T09:01:41.988Z,2948
2017-10-20T09:02:41.975Z,3036
2017-10-20T09:03:41.957Z,3168
2017-10-20T09:04:41.953Z,2876
2017-10-20T09:05:42.263Z,2404
2017-10-20T09:06:41.922Z,2240
2017-10-20T09:07:41.909Z,1940
2017-10-20T09:08:41.897Z,1560
2017-10-20T09:09:42.211Z,1404
2017-10-20T09:10:41.863Z,1360
2017-10-20T09:11:41.515Z,1672
2017-10-20T09:12:41.839Z,1492
2017-10-20T09:13:42.164Z,1392
2017-10-20T09:14:41.810Z,1392
2017-10-20T09:15:41.464Z,1340
2017-10-20T09:16:42.117Z,1624
2017-10-20T09:17:41.970Z,1556
2017-10-20T09:18:41.432Z,1244
2017-10-20T09:19:41.416Z,1152
2017-10-20T09:20:41.745Z,1300
2017-10-20T09:21:41.731Z,1616
2017-10-20T09:22:41.376Z,1896
2017-10-20T09:23:42.025Z,1212
2017-10-20T09:24:41.344Z,732
2017-10-20T09:25:42.001Z,620
2017-10-20T09:26:41.664Z,872
2017-10-20T09:27:40.977Z,1056
2017-10-20T09:28:41.627Z,1140
2017-10-20T09:29:41.608Z,1452
2017-10-20T09:30:41.611Z,1572
2017-10-20T09:31:41.252Z,1056
2017-10-20T09:32:41.242Z,664
2017-10-20T09:33:41.226Z,604
2017-10-20T09:34:41.881Z,624
2017-10-20T09:35:41.872Z,1024
2017-10-20T09:36:41.183Z,964
2017-10-20T09:37:41.501Z,1008
2017-10-20T09:38:41.157Z,1440
2017-10-20T09:39:41.834Z,1724
2017-10-20T09:40:41.458Z,2056
2017-10-20T09:41:41.117Z,2200
2017-10-20T09:42:40.776Z,3144
2017-10-20T09:43:41.102Z,3496
2017-10-20T09:44:41.421Z,2284
2017-10-20T09:45:41.394Z,1536
2017-10-20T09:46:41.385Z,1100
2017-10-20T09:47:41.038Z,880
2017-10-20T09:48:41.359Z,720
2017-10-20T09:49:41.358Z,800
2017-10-20T09:50:40.671Z,1256
2017-10-20T09:51:40.649Z,2388
2017-10-20T09:52:41.302Z,3264
2017-10-20T09:53:40.958Z,3620
2017-10-20T09:54:40.946Z,2844
2017-10-20T09:55:41.593Z,2528
2017-10-20T09:56:41.257Z,2764
2017-10-20T09:57:41.242Z,2980
2017-10-20T09:58:40.888Z,3212
2017-10-20T09:59:41.213Z,4068
2017-10-20T10:00:41.218Z,3848
2017-10-20T10:01:41.207Z,3572
2017-10-20T10:02:40.834Z,3480
2017-10-20T10:03:41.488Z,2716
2017-10-20T10:04:41.484Z,2576
2017-10-20T10:05:41.477Z,2676
2017-10-20T10:06:41.121Z,2520
2017-10-20T10:07:41.108Z,2380
2017-10-20T10:08:41.422Z,2032
2017-10-20T10:09:40.405Z,1896
2017-10-20T10:10:40.741Z,1976
2017-10-20T10:11:40.716Z,1992
2017-10-20T10:12:40.704Z,2004
2017-10-20T10:13:40.352Z,1928
2017-10-20T10:14:41.015Z,1912
2017-10-20T10:15:41.323Z,1992
2017-10-20T10:16:40.979Z,2076
2017-10-20T10:17:41.296Z,2204
2017-10-20T10:18:40.620Z,2424
2017-10-20T10:19:41.265Z,2708
2017-10-20T10:20:40.924Z,2948
2017-10-20T10:21:41.245Z,3332
2017-10-20T10:22:40.555Z,4096
2017-10-20T10:23:40.553Z,5740
2017-10-20T10:24:40.528Z,7992
2017-10-20T10:25:41.187Z,9808
2017-10-20T10:26:40.840Z,10636
2017-10-20T10:27:40.167Z,10616
2017-10-20T10:28:40.813Z,9228
2017-10-20T10:29:40.806Z,8172
2017-10-20T10:30:40.448Z,7200
2017-10-20T10:31:40.441Z,7432
2017-10-20T10:32:40.751Z,8376
2017-10-20T10:33:40.740Z,8972
2017-10-20T10:34:40.395Z,9844
2017-10-20T10:35:40.045Z,13340
2017-10-20T10:36:41.035Z,14460
2017-10-20T10:37:41.023Z,17024
2017-10-20T10:38:41.028Z,16500
2017-10-20T10:39:40.330Z,21920
2017-10-20T10:40:40.710Z,23968
2017-10-20T10:41:40.641Z,24320
2017-10-20T10:42:40.290Z,7928
2017-10-20T10:43:40.613Z,7848
2017-10-20T10:44:40.264Z,6436
2017-10-20T10:45:40.589Z,5100
2017-10-20T10:46:40.583Z,6632
2017-10-20T10:47:40.225Z,8540
2017-10-20T10:48:40.553Z,24192
2017-10-20T10:49:40.539Z,25184
2017-10-20T10:50:40.877Z,23360
2017-10-20T10:51:39.849Z,9284
2017-10-20T10:52:40.498Z,17536
2017-10-20T10:53:40.153Z,6024
2017-10-20T10:54:40.155Z,18688
2017-10-20T10:55:40.793Z,12744
2017-10-20T10:56:40.485Z,18784
2017-10-20T10:57:40.446Z,9056
2017-10-20T10:58:40.097Z,14016
2017-10-20T10:59:40.414Z,9648
2017-10-20T11:00:40.087Z,8160
2017-10-20T11:01:40.605Z,10760
2017-10-20T11:02:40.054Z,11796
2017-10-20T11:03:40.142Z,5096
2017-10-20T11:04:40.388Z,13360
2017-10-20T11:05:40.706Z,5416
2017-10-20T11:06:40.745Z,8152
2017-10-20T11:07:40.017Z,4944
2017-10-20T11:08:40.325Z,6140
2017-10-20T11:09:40.346Z,8664
2017-10-20T11:10:40.632Z,10464
2017-10-20T11:11:40.436Z,5812
2017-10-20T11:12:39.944Z,8104
2017-10-20T11:13:40.604Z,5584
2017-10-20T11:14:39.921Z,5656
2017-10-20T11:15:39.571Z,4924
2017-10-20T11:16:39.883Z,11544
2017-10-20T11:17:40.409Z,8076
2017-10-20T11:18:39.861Z,6216
2017-10-20T11:19:40.191Z,18624
2017-10-20T11:20:40.188Z,5348
2017-10-20T11:21:39.833Z,9180
2017-10-20T11:22:40.156Z,9432
2017-10-20T11:23:40.157Z,7940
2017-10-20T11:24:40.133Z,14264
2017-10-20T11:25:40.475Z,14912
2017-10-20T11:26:39.812Z,11636
2017-10-20T11:27:39.765Z,15808
2017-10-20T11:28:39.761Z,11248
2017-10-20T11:29:39.407Z,7224
2017-10-20T11:30:39.730Z,16000
2017-10-20T11:31:40.389Z,13120
2017-10-20T11:32:40.043Z,15296
2017-10-20T11:33:40.043Z,13504
2017-10-20T11:34:39.692Z,41344
2017-10-20T11:35:39.686Z,29056
2017-10-20T11:36:40.005Z,58272
2017-10-20T11:37:39.758Z,60160
2017-10-20T11:38:39.645Z,59936
2017-10-20T11:39:39.635Z,30272
2017-10-20T11:40:39.624Z,11508
2017-10-20T11:41:39.955Z,53184
2017-10-20T11:42:39.613Z,52736
2017-10-20T11:43:40.272Z,37664
2017-10-20T11:44:39.929Z,14856
2017-10-20T11:45:39.920Z,9812
2017-10-20T11:46:39.927Z,8412
2017-10-20T11:47:39.562Z,5284
2017-10-20T11:48:39.558Z,5332
2017-10-20T11:49:39.914Z,6404
2017-10-20T11:50:39.872Z,27552
2017-10-20T11:51:39.874Z,7380
2017-10-20T11:52:39.910Z,9836
2017-10-20T11:53:39.852Z,11272
2017-10-20T11:54:39.504Z,17952
2017-10-20T11:55:39.829Z,56416
2017-10-20T11:56:39.484Z,30688
2017-10-20T11:57:40.138Z,9872
2017-10-20T11:58:39.475Z,14496
2017-10-20T11:59:39.119Z,7200
2017-10-20T12:00:40.123Z,48480
2017-10-20T12:01:39.107Z,58720
2017-10-20T12:02:39.101Z,5236
2017-10-20T12:03:40.096Z,7732
2017-10-20T12:04:40.089Z,27776
2017-10-20T12:05:39.405Z,41696
2017-10-20T12:06:39.761Z,38080
2017-10-20T12:07:39.719Z,55328
2017-10-20T12:08:40.063Z,26752
2017-10-20T12:09:39.702Z,55648
2017-10-20T12:10:39.375Z,52192
2017-10-20T12:11:39.354Z,53792
2017-10-20T12:12:39.674Z,51104
2017-10-20T12:13:38.997Z,40576
2017-10-20T12:14:39.657Z,38368
2017-10-20T12:15:39.329Z,53280
2017-10-20T12:16:39.984Z,13152
2017-10-20T12:17:39.638Z,12712
2017-10-20T12:18:39.632Z,12192
2017-10-20T12:19:39.957Z,13752
2017-10-20T12:20:39.650Z,60832
2017-10-20T12:21:38.943Z,62784
2017-10-20T12:22:39.273Z,54336
2017-10-20T12:23:39.278Z,54720
2017-10-20T12:24:39.592Z,12972
2017-10-20T12:25:39.587Z,52064
2017-10-20T12:26:39.917Z,18464
2017-10-20T12:27:39.579Z,12464
2017-10-20T12:28:39.572Z,19136
2017-10-20T12:29:39.225Z,25600
2017-10-20T12:30:39.222Z,14708
2017-10-20T12:31:39.207Z,14128
2017-10-20T12:32:39.204Z,11252
2017-10-20T12:33:39.540Z,11528
2017-10-20T12:34:39.519Z,17376
2017-10-20T12:35:39.183Z,41184
2017-10-20T12:36:39.522Z,15296
2017-10-20T12:37:38.844Z,11612
2017-10-20T12:38:39.165Z,8832
2017-10-20T12:39:38.821Z,7132
2017-10-20T12:40:39.809Z,6960
2017-10-20T12:41:39.479Z,6592
2017-10-20T12:42:39.476Z,5752
2017-10-20T12:43:39.467Z,5684
2017-10-20T12:44:39.121Z,6172
2017-10-20T12:45:39.104Z,6804
2017-10-20T12:46:39.426Z,7256
2017-10-20T12:47:39.753Z,7960
2017-10-20T12:48:39.413Z,8072
2017-10-20T12:49:39.067Z,7464
2017-10-20T12:50:38.726Z,6756
2017-10-20T12:51:38.713Z,5568
2017-10-20T12:52:39.385Z,4748
2017-10-20T12:53:39.374Z,4384
2017-10-20T12:54:39.696Z,4320
2017-10-20T12:55:39.014Z,4448
2017-10-20T12:56:39.021Z,4356
2017-10-20T12:57:38.998Z,4112
2017-10-20T12:58:39.001Z,4488
2017-10-20T12:59:38.978Z,5044
2017-10-20T13:00:39.290Z,5520
2017-10-20T13:01:39.290Z,6184
2017-10-20T13:02:39.359Z,6316
2017-10-20T13:03:39.287Z,6184
2017-10-20T13:04:39.262Z,8056
2017-10-20T13:05:39.241Z,9308
2017-10-20T13:06:39.237Z,9508
2017-10-20T13:07:39.223Z,6860
2017-10-20T13:08:38.541Z,6356
2017-10-20T13:09:39.215Z,6620
2017-10-20T13:10:38.850Z,6008
2017-10-20T13:11:39.165Z,6228
2017-10-20T13:12:38.489Z,7692
2017-10-20T13:13:39.155Z,9032
2017-10-20T13:14:39.463Z,9492
2017-10-20T13:15:38.785Z,8760
2017-10-20T13:16:39.105Z,6772
2017-10-20T13:17:38.972Z,5480
2017-10-20T13:18:38.759Z,4560
2017-10-20T13:19:39.075Z,4012
2017-10-20T13:20:38.732Z,3668
2017-10-20T13:21:38.716Z,4052
2017-10-20T13:22:38.706Z,4332
2017-10-20T13:23:39.024Z,4060
2017-10-20T13:24:39.020Z,3084
2017-10-20T13:25:39.002Z,3028
2017-10-20T13:26:39.332Z,2964
2017-10-20T13:27:39.317Z,2456
2017-10-20T13:28:38.636Z,2388
2017-10-20T13:29:38.964Z,3216
2017-10-20T13:30:38.940Z,2868
2017-10-20T13:31:38.930Z,2012
2017-10-20T13:32:39.265Z,1608
2017-10-20T13:33:38.911Z,1676
2017-10-20T13:34:38.557Z,1952
2017-10-20T13:35:38.550Z,2024
2017-10-20T13:36:38.204Z,2168
2017-10-20T13:37:38.860Z,2376
2017-10-20T13:38:39.191Z,2084
2017-10-20T13:39:38.879Z,2032
2017-10-20T13:40:38.500Z,1936
2017-10-20T13:41:39.146Z,2048
2017-10-20T13:42:38.473Z,2200
2017-10-20T13:43:38.787Z,2164
2017-10-20T13:44:39.109Z,2028
2017-10-20T13:45:38.756Z,2048
2017-10-20T13:46:38.415Z,2208
2017-10-20T13:47:38.402Z,2348
2017-10-20T13:48:38.064Z,2508
2017-10-20T13:49:38.416Z,2604
2017-10-20T13:50:38.027Z,2624
2017-10-20T13:51:39.020Z,2664
2017-10-20T13:52:38.673Z,2720
2017-10-20T13:53:38.996Z,2516
2017-10-20T13:54:37.977Z,2412
2017-10-20T13:55:38.646Z,2496
2017-10-20T13:56:38.295Z,2584